createdAt,value
2019-06-27T00:00:05.369Z,985.24
2019-06-27T00:01:05.445Z,985.27
2019-06-27T00:02:05.073Z,985.24
2019-06-27T00:03:05.234Z,985.18
2019-06-27T00:04:05.480Z,985.24
2019-06-27T00:05:04.879Z,985.18
2019-06-27T00:06:05.102Z,985.07
2019-06-27T00:07:05.434Z,985.13
2019-06-27T00:08:04.954Z,985.24
2019-06-27T00:09:05.218Z,985.24
2019-06-27T00:10:04.924Z,985.35
2019-06-27T00:11:05.417Z,985.30
2019-06-27T00:12:04.993Z,985.44
2019-06-27T00:13:04.890Z,985.25
2019-06-27T00:14:04.862Z,985.35
2019-06-27T00:15:04.613Z,985.41
2019-06-27T00:16:04.699Z,985.36
2019-06-27T00:17:05.224Z,985.28
2019-06-27T00:18:05.366Z,985.36
2019-06-27T00:19:04.747Z,985.36
2019-06-27T00:20:04.750Z,985.31
2019-06-27T00:21:05.335Z,985.31
2019-06-27T00:22:04.841Z,985.36
2019-06-27T00:23:05.324Z,985.50
2019-06-27T00:24:05.379Z,985.39
2019-06-27T00:25:05.418Z,985.48
2019-06-27T00:26:05.027Z,985.48
2019-06-27T00:27:05.390Z,985.28
2019-06-27T00:28:05.244Z,985.42
2019-06-27T00:29:05.299Z,985.48
2019-06-27T00:30:12.664Z,985.39
2019-06-27T00:31:05.015Z,985.42
2019-06-27T00:32:05.358Z,985.39
2019-06-27T00:33:04.829Z,985.42
2019-06-27T00:34:05.462Z,985.45
2019-06-27T00:35:04.468Z,985.42
2019-06-27T00:36:04.796Z,985.45
2019-06-27T00:37:04.475Z,985.39
2019-06-27T00:38:04.567Z,985.28
2019-06-27T00:39:05.190Z,985.42
2019-06-27T00:40:05.445Z,985.51
2019-06-27T00:41:04.884Z,985.51
2019-06-27T00:42:04.929Z,985.54
2019-06-27T00:43:05.035Z,985.45
2019-06-27T00:44:05.499Z,985.54
2019-06-27T00:45:04.562Z,985.57
2019-06-27T00:46:04.709Z,985.57
2019-06-27T00:47:05.154Z,985.48
2019-06-27T00:48:05.109Z,985.57
2019-06-27T00:49:04.584Z,985.57
2019-06-27T00:50:05.100Z,985.63
2019-06-27T00:51:04.974Z,985.69
2019-06-27T00:52:05.113Z,985.66
2019-06-27T00:53:05.343Z,985.57
2019-06-27T00:54:05.333Z,985.58
2019-06-27T00:55:04.952Z,985.60
2019-06-27T00:56:05.465Z,985.55
2019-06-27T00:57:14.842Z,985.58
2019-06-27T00:58:04.761Z,985.66
2019-06-27T00:59:05.076Z,985.61
2019-06-27T01:00:04.609Z,985.49
2019-06-27T01:01:05.005Z,985.49
2019-06-27T01:02:04.889Z,985.61
2019-06-27T01:03:04.975Z,985.61
2019-06-27T01:04:05.233Z,985.52
2019-06-27T01:05:04.569Z,985.58
2019-06-27T01:06:04.830Z,985.52
2019-06-27T01:07:05.185Z,985.64
2019-06-27T01:08:05.321Z,985.64
2019-06-27T01:09:05.472Z,985.52
2019-06-27T01:10:05.263Z,985.50
2019-06-27T01:11:04.558Z,985.61
2019-06-27T01:12:04.679Z,985.59
2019-06-27T01:13:04.982Z,985.56
2019-06-27T01:14:05.143Z,985.59
2019-06-27T01:15:04.958Z,985.56
2019-06-27T01:16:05.061Z,985.71
2019-06-27T01:17:04.793Z,985.50
2019-06-27T01:18:04.815Z,985.56
2019-06-27T01:19:04.989Z,985.56
2019-06-27T01:20:05.180Z,985.50
2019-06-27T01:21:05.204Z,985.56
2019-06-27T01:22:04.565Z,985.54
2019-06-27T01:23:05.291Z,985.42
2019-06-27T01:24:05.310Z,985.57
2019-06-27T01:25:05.140Z,985.57
2019-06-27T01:26:04.881Z,985.39
2019-06-27T01:27:05.185Z,985.57
2019-06-27T01:28:04.780Z,985.54
2019-06-27T01:29:05.029Z,985.51
2019-06-27T01:30:05.347Z,985.60
2019-06-27T01:31:04.524Z,985.57
2019-06-27T01:32:04.774Z,985.48
2019-06-27T01:33:05.111Z,985.48
2019-06-27T01:34:05.130Z,985.66
2019-06-27T01:35:04.931Z,985.51
2019-06-27T01:36:05.468Z,985.49
2019-06-27T01:37:04.601Z,985.54
2019-06-27T01:38:05.235Z,985.63
2019-06-27T01:39:05.367Z,985.69
2019-06-27T01:40:05.330Z,985.61
2019-06-27T01:41:04.482Z,985.69
2019-06-27T01:42:05.106Z,985.66
2019-06-27T01:43:05.435Z,985.66
2019-06-27T01:44:05.455Z,985.66
2019-06-27T01:45:04.539Z,985.64
2019-06-27T01:46:04.737Z,985.61
2019-06-27T01:47:05.026Z,985.55
2019-06-27T01:48:05.089Z,985.75
2019-06-27T01:49:04.741Z,985.67
2019-06-27T01:50:05.179Z,985.67
2019-06-27T01:51:04.495Z,985.61
2019-06-27T01:52:04.975Z,985.67
2019-06-27T01:53:04.645Z,985.70
2019-06-27T01:54:04.644Z,985.64
2019-06-27T01:55:05.199Z,985.70
2019-06-27T01:56:05.250Z,985.49
2019-06-27T01:57:05.445Z,985.67
2019-06-27T01:58:05.392Z,985.58
2019-06-27T01:59:05.025Z,985.58
2019-06-27T02:00:05.257Z,985.67
2019-06-27T02:01:05.329Z,985.61
2019-06-27T02:02:04.484Z,985.58
2019-06-27T02:03:04.571Z,985.61
2019-06-27T02:04:04.750Z,985.61
2019-06-27T02:05:10.169Z,985.58
2019-06-27T02:06:05.104Z,985.61
2019-06-27T02:07:05.248Z,985.76
2019-06-27T02:08:04.594Z,985.61
2019-06-27T02:09:05.231Z,985.64
2019-06-27T02:10:05.408Z,985.67
2019-06-27T02:11:04.560Z,985.64
2019-06-27T02:12:04.614Z,985.67
2019-06-27T02:13:04.804Z,985.82
2019-06-27T02:14:05.425Z,985.64
2019-06-27T02:15:05.516Z,985.67
2019-06-27T02:16:04.955Z,985.73
2019-06-27T02:17:05.003Z,985.64
2019-06-27T02:18:05.144Z,985.61
2019-06-27T02:19:05.249Z,985.58
2019-06-27T02:20:05.260Z,985.61
2019-06-27T02:21:04.852Z,985.64
2019-06-27T02:22:04.802Z,985.70
2019-06-27T02:23:05.431Z,985.61
2019-06-27T02:24:05.464Z,985.58
2019-06-27T02:25:04.484Z,985.70
2019-06-27T02:26:04.742Z,985.58
2019-06-27T02:27:04.941Z,985.64
2019-06-27T02:28:05.156Z,985.58
2019-06-27T02:29:05.023Z,985.58
2019-06-27T02:30:05.264Z,985.70
2019-06-27T02:31:05.559Z,985.56
2019-06-27T02:32:04.697Z,985.56
2019-06-27T02:33:04.863Z,985.73
2019-06-27T02:34:07.547Z,985.64
2019-06-27T02:35:05.325Z,985.64
2019-06-27T02:36:05.350Z,985.65
2019-06-27T02:37:04.880Z,985.85
2019-06-27T02:38:04.516Z,985.65
2019-06-27T02:39:05.076Z,985.74
2019-06-27T02:40:04.736Z,985.76
2019-06-27T02:41:05.045Z,985.79
2019-06-27T02:42:05.133Z,985.56
2019-06-27T02:43:04.629Z,985.68
2019-06-27T02:44:04.749Z,985.68
2019-06-27T02:45:09.912Z,985.65
2019-06-27T02:46:05.389Z,985.77
2019-06-27T02:47:05.077Z,985.65
2019-06-27T02:48:05.464Z,985.68
2019-06-27T02:49:04.653Z,985.59
2019-06-27T02:50:04.835Z,985.53
2019-06-27T02:51:04.924Z,985.56
2019-06-27T02:52:05.041Z,985.80
2019-06-27T02:53:04.604Z,985.83
2019-06-27T02:54:05.356Z,985.77
2019-06-27T02:55:04.597Z,985.71
2019-06-27T02:56:05.097Z,985.71
2019-06-27T02:57:05.339Z,985.80
2019-06-27T02:58:31.490Z,985.77
2019-06-27T02:59:04.540Z,985.83
2019-06-27T03:00:04.742Z,985.74
2019-06-27T03:01:05.435Z,985.74
2019-06-27T03:02:05.054Z,985.71
2019-06-27T03:03:04.558Z,985.74
2019-06-27T03:04:05.280Z,985.71
2019-06-27T03:05:04.613Z,985.74
2019-06-27T03:06:04.734Z,985.74
2019-06-27T03:07:04.960Z,985.89
2019-06-27T03:08:05.005Z,985.80
2019-06-27T03:09:04.695Z,985.80
2019-06-27T03:10:05.265Z,985.60
2019-06-27T03:11:05.250Z,985.71
2019-06-27T03:12:04.764Z,985.86
2019-06-27T03:13:05.075Z,985.77
2019-06-27T03:14:04.949Z,985.66
2019-06-27T03:15:04.989Z,985.63
2019-06-27T03:16:05.157Z,985.77
2019-06-27T03:17:04.758Z,985.66
2019-06-27T03:18:04.482Z,985.78
2019-06-27T03:19:04.811Z,985.83
2019-06-27T03:20:05.419Z,985.86
2019-06-27T03:21:05.462Z,985.89
2019-06-27T03:22:06.635Z,985.89
2019-06-27T03:23:05.407Z,985.81
2019-06-27T03:24:04.878Z,985.84
2019-06-27T03:25:05.143Z,985.89
2019-06-27T03:26:04.757Z,986.01
2019-06-27T03:27:05.213Z,985.90
2019-06-27T03:28:05.396Z,985.87
2019-06-27T03:29:04.604Z,985.84
2019-06-27T03:30:04.694Z,985.78
2019-06-27T03:31:04.947Z,985.93
2019-06-27T03:32:04.616Z,985.87
2019-06-27T03:33:05.441Z,985.78
2019-06-27T03:34:05.450Z,985.96
2019-06-27T03:35:05.122Z,985.78
2019-06-27T03:36:05.231Z,985.87
2019-06-27T03:37:05.306Z,985.81
2019-06-27T03:38:04.507Z,985.90
2019-06-27T03:39:04.791Z,985.84
2019-06-27T03:40:04.827Z,985.99
2019-06-27T03:41:05.368Z,985.99
2019-06-27T03:42:05.464Z,985.93
2019-06-27T03:43:04.677Z,985.90
2019-06-27T03:44:04.722Z,985.90
2019-06-27T03:45:17.725Z,985.95
2019-06-27T03:46:05.355Z,986.01
2019-06-27T03:47:04.802Z,985.86
2019-06-27T03:48:04.539Z,985.89
2019-06-27T03:49:04.911Z,985.77
2019-06-27T03:50:04.976Z,986.04
2019-06-27T03:51:04.997Z,985.92
2019-06-27T03:52:05.201Z,985.89
2019-06-27T03:53:05.305Z,985.82
2019-06-27T03:54:04.821Z,985.82
2019-06-27T03:55:05.436Z,985.94
2019-06-27T03:56:04.521Z,985.82
2019-06-27T03:57:04.672Z,985.73
2019-06-27T03:58:04.701Z,985.87
2019-06-27T03:59:13.939Z,985.84
2019-06-27T04:00:04.715Z,985.81
2019-06-27T04:01:04.713Z,986.01
2019-06-27T04:02:04.458Z,985.95
2019-06-27T04:03:04.839Z,985.86
2019-06-27T04:04:05.266Z,985.77
2019-06-27T04:05:04.498Z,986.00
2019-06-27T04:06:05.237Z,985.89
2019-06-27T04:07:04.788Z,986.09
2019-06-27T04:08:05.480Z,986.06
2019-06-27T04:09:04.706Z,986.06
2019-06-27T04:10:05.072Z,985.94
2019-06-27T04:11:04.550Z,986.05
2019-06-27T04:12:04.618Z,985.94
2019-06-27T04:13:04.665Z,986.02
2019-06-27T04:14:05.391Z,985.96
2019-06-27T04:15:04.601Z,985.93
2019-06-27T04:16:05.249Z,985.87
2019-06-27T04:17:04.915Z,985.90
2019-06-27T04:18:04.654Z,985.90
2019-06-27T04:19:05.452Z,985.98
2019-06-27T04:20:04.649Z,985.89
2019-06-27T04:21:04.649Z,985.92
2019-06-27T04:22:05.015Z,985.95
2019-06-27T04:23:05.417Z,986.01
2019-06-27T04:24:04.478Z,985.92
2019-06-27T04:25:05.110Z,985.92
2019-06-27T04:26:04.589Z,985.95
2019-06-27T04:27:04.845Z,986.03
2019-06-27T04:28:04.971Z,986.06
2019-06-27T04:29:05.248Z,986.09
2019-06-27T04:30:05.433Z,986.03
2019-06-27T04:31:05.020Z,986.00
2019-06-27T04:32:05.193Z,986.00
2019-06-27T04:33:05.516Z,985.97
2019-06-27T04:34:04.859Z,986.03
2019-06-27T04:35:05.280Z,986.03
2019-06-27T04:36:04.582Z,986.02
2019-06-27T04:37:04.679Z,986.05
2019-06-27T04:38:04.773Z,986.02
2019-06-27T04:39:05.258Z,986.05
2019-06-27T04:40:04.973Z,985.96
2019-06-27T04:41:05.241Z,985.96
2019-06-27T04:42:04.941Z,985.93
2019-06-27T04:43:06.622Z,985.90
2019-06-27T04:44:05.432Z,985.96
2019-06-27T04:45:05.118Z,985.93
2019-06-27T04:46:04.689Z,985.92
2019-06-27T04:47:05.057Z,986.07
2019-06-27T04:48:04.666Z,986.07
2019-06-27T04:49:14.137Z,986.16
2019-06-27T04:50:04.605Z,986.10
2019-06-27T04:51:05.232Z,986.12
2019-06-27T04:52:04.684Z,986.12
2019-06-27T04:53:05.154Z,986.12
2019-06-27T04:54:04.722Z,986.21
2019-06-27T04:55:05.464Z,986.03
2019-06-27T04:56:04.717Z,986.15
2019-06-27T04:57:05.264Z,986.06
2019-06-27T04:58:05.502Z,986.12
2019-06-27T04:59:04.811Z,986.11
2019-06-27T05:00:05.113Z,986.11
2019-06-27T05:01:04.472Z,986.08
2019-06-27T05:02:05.059Z,986.14
2019-06-27T05:03:05.235Z,986.14
2019-06-27T05:04:04.578Z,986.08
2019-06-27T05:05:04.642Z,986.14
2019-06-27T05:06:04.683Z,986.22
2019-06-27T05:07:04.890Z,986.25
2019-06-27T05:08:04.851Z,986.25
2019-06-27T05:09:04.556Z,986.16
2019-06-27T05:10:05.280Z,986.16
2019-06-27T05:11:04.701Z,986.24
2019-06-27T05:12:05.101Z,986.27
2019-06-27T05:13:04.880Z,986.30
2019-06-27T05:14:05.355Z,986.24
2019-06-27T05:15:04.508Z,986.33
2019-06-27T05:16:05.389Z,986.33
2019-06-27T05:17:04.875Z,986.27
2019-06-27T05:18:04.965Z,986.30
2019-06-27T05:19:05.086Z,986.42
2019-06-27T05:20:05.043Z,986.40
2019-06-27T05:21:04.477Z,986.37
2019-06-27T05:22:05.129Z,986.22
2019-06-27T05:23:10.367Z,986.40
2019-06-27T05:24:04.754Z,986.40
2019-06-27T05:25:05.463Z,986.28
2019-06-27T05:26:04.665Z,986.37
2019-06-27T05:27:05.210Z,986.28
2019-06-27T05:28:05.295Z,986.52
2019-06-27T05:29:04.954Z,986.40
2019-06-27T05:30:10.786Z,986.41
2019-06-27T05:31:05.372Z,986.41
2019-06-27T05:32:05.098Z,986.41
2019-06-27T05:33:05.135Z,986.51
2019-06-27T05:34:05.578Z,986.48
2019-06-27T05:35:04.966Z,986.42
2019-06-27T05:36:05.493Z,986.51
2019-06-27T05:37:04.521Z,986.40
2019-06-27T05:38:05.093Z,986.37
2019-06-27T05:39:05.256Z,986.46
2019-06-27T05:40:05.186Z,986.46
2019-06-27T05:41:04.962Z,986.34
2019-06-27T05:42:04.678Z,986.52
2019-06-27T05:43:04.786Z,986.40
2019-06-27T05:44:04.986Z,986.49
2019-06-27T05:45:10.326Z,986.54
2019-06-27T05:46:04.783Z,986.48
2019-06-27T05:47:05.241Z,986.45
2019-06-27T05:48:05.511Z,986.56
2019-06-27T05:49:05.090Z,986.56
2019-06-27T05:50:05.107Z,986.56
2019-06-27T05:51:04.731Z,986.51
2019-06-27T05:52:04.899Z,986.64
2019-06-27T05:53:05.036Z,986.64
2019-06-27T05:54:05.402Z,986.62
2019-06-27T05:55:05.100Z,986.51
2019-06-27T05:56:05.336Z,986.48
2019-06-27T05:57:04.693Z,986.59
2019-06-27T05:58:04.992Z,986.62
2019-06-27T05:59:05.294Z,986.59
2019-06-27T06:00:05.071Z,986.54
2019-06-27T06:01:05.021Z,986.56
2019-06-27T06:02:04.728Z,986.54
2019-06-27T06:03:04.831Z,986.54
2019-06-27T06:04:04.941Z,986.56
2019-06-27T06:05:05.103Z,986.59
2019-06-27T06:06:05.008Z,986.70
2019-06-27T06:07:04.976Z,986.70
2019-06-27T06:08:04.784Z,986.62
2019-06-27T06:09:04.993Z,986.56
2019-06-27T06:10:05.123Z,986.67
2019-06-27T06:11:05.249Z,986.67
2019-06-27T06:12:04.499Z,986.61
2019-06-27T06:13:05.025Z,986.67
2019-06-27T06:14:04.583Z,986.61
2019-06-27T06:15:05.185Z,986.57
2019-06-27T06:16:05.409Z,986.49
2019-06-27T06:17:04.800Z,986.63
2019-06-27T06:18:05.184Z,986.66
2019-06-27T06:19:05.380Z,986.65
2019-06-27T06:20:04.628Z,986.62
2019-06-27T06:21:04.577Z,986.68
2019-06-27T06:22:04.996Z,986.77
2019-06-27T06:23:05.108Z,986.77
2019-06-27T06:24:05.243Z,986.80
2019-06-27T06:25:05.387Z,986.71
2019-06-27T06:26:05.029Z,986.86
2019-06-27T06:27:05.072Z,986.83
2019-06-27T06:28:05.200Z,986.83
2019-06-27T06:29:05.418Z,986.83
2019-06-27T06:30:04.697Z,986.68
2019-06-27T06:31:04.955Z,986.86
2019-06-27T06:32:05.179Z,986.83
2019-06-27T06:33:05.172Z,986.86
2019-06-27T06:34:04.983Z,986.77
2019-06-27T06:35:05.134Z,986.78
2019-06-27T06:36:04.881Z,986.72
2019-06-27T06:37:08.367Z,986.75
2019-06-27T06:38:05.407Z,986.75
2019-06-27T06:39:05.503Z,986.69
2019-06-27T06:40:04.498Z,986.78
2019-06-27T06:41:05.200Z,986.84
2019-06-27T06:42:04.627Z,986.87
2019-06-27T06:43:04.611Z,986.78
2019-06-27T06:44:05.148Z,986.72
2019-06-27T06:45:04.970Z,986.66
2019-06-27T06:46:05.123Z,986.72
2019-06-27T06:47:05.312Z,986.72
2019-06-27T06:48:05.440Z,986.75
2019-06-27T06:49:05.005Z,986.83
2019-06-27T06:50:05.154Z,986.83
2019-06-27T06:51:04.885Z,986.92
2019-06-27T06:52:04.754Z,986.74
2019-06-27T06:53:05.221Z,986.83
2019-06-27T06:54:05.283Z,986.80
2019-06-27T06:55:05.376Z,986.80
2019-06-27T06:56:04.716Z,986.85
2019-06-27T06:57:04.787Z,986.76
2019-06-27T06:58:04.484Z,986.91
2019-06-27T06:59:04.827Z,986.85
2019-06-27T07:00:05.412Z,986.88
2019-06-27T07:01:04.735Z,986.90
2019-06-27T07:02:04.866Z,986.87
2019-06-27T07:03:04.603Z,987.02
2019-06-27T07:04:04.776Z,986.93
2019-06-27T07:05:04.806Z,987.02
2019-06-27T07:06:05.336Z,986.90
2019-06-27T07:07:04.627Z,987.02
2019-06-27T07:08:04.993Z,986.93
2019-06-27T07:09:05.039Z,986.99
2019-06-27T07:10:05.159Z,986.87
2019-06-27T07:11:04.868Z,986.99
2019-06-27T07:12:04.717Z,986.90
2019-06-27T07:13:04.992Z,987.02
2019-06-27T07:14:05.414Z,987.02
2019-06-27T07:15:04.845Z,986.93
2019-06-27T07:16:05.745Z,986.99
2019-06-27T07:17:04.874Z,986.99
2019-06-27T07:18:05.010Z,986.87
2019-06-27T07:19:05.151Z,986.99
2019-06-27T07:20:05.412Z,986.99
2019-06-27T07:21:04.739Z,986.90
2019-06-27T07:22:05.423Z,986.96
2019-06-27T07:23:04.590Z,986.99
2019-06-27T07:24:04.788Z,987.02
2019-06-27T07:25:05.215Z,986.99
2019-06-27T07:26:05.442Z,986.99
2019-06-27T07:27:04.707Z,986.99
2019-06-27T07:28:04.835Z,986.84
2019-06-27T07:29:05.468Z,986.98
2019-06-27T07:30:04.676Z,986.98
2019-06-27T07:31:18.500Z,987.04
2019-06-27T07:32:05.310Z,986.90
2019-06-27T07:33:04.700Z,986.84
2019-06-27T07:34:04.967Z,987.05
2019-06-27T07:35:04.692Z,986.87
2019-06-27T07:36:04.803Z,986.90
2019-06-27T07:37:04.971Z,986.84
2019-06-27T07:38:05.250Z,986.90
2019-06-27T07:39:04.961Z,986.93
2019-06-27T07:40:05.010Z,986.93
2019-06-27T07:41:05.242Z,986.93
2019-06-27T07:42:04.511Z,987.05
2019-06-27T07:43:04.801Z,986.90
2019-06-27T07:44:04.552Z,986.84
2019-06-27T07:45:09.786Z,986.82
2019-06-27T07:46:05.206Z,986.84
2019-06-27T07:47:05.408Z,986.99
2019-06-27T07:48:04.439Z,986.88
2019-06-27T07:49:04.784Z,986.96
2019-06-27T07:50:05.588Z,986.93
2019-06-27T07:51:04.504Z,986.90
2019-06-27T07:52:05.352Z,986.99
2019-06-27T07:53:05.424Z,987.02
2019-06-27T07:54:04.968Z,986.76
2019-06-27T07:55:04.927Z,986.82
2019-06-27T07:56:05.393Z,986.93
2019-06-27T07:57:04.626Z,987.02
2019-06-27T07:58:04.906Z,986.97
2019-06-27T07:59:05.346Z,987.05
2019-06-27T08:00:05.506Z,986.88
2019-06-27T08:01:04.845Z,986.99
2019-06-27T08:02:04.982Z,987.02
2019-06-27T08:03:05.039Z,986.84
2019-06-27T08:04:05.194Z,987.02
2019-06-27T08:05:05.412Z,986.93
2019-06-27T08:06:05.185Z,986.96
2019-06-27T08:07:05.240Z,986.99
2019-06-27T08:08:05.577Z,987.04
2019-06-27T08:09:04.622Z,986.87
2019-06-27T08:10:04.782Z,986.90
2019-06-27T08:11:05.197Z,986.99
2019-06-27T08:12:05.374Z,987.02
2019-06-27T08:13:05.433Z,986.90
2019-06-27T08:14:09.561Z,986.93
2019-06-27T08:15:05.073Z,986.88
2019-06-27T08:16:05.042Z,987.00
2019-06-27T08:17:04.880Z,986.91
2019-06-27T08:18:04.850Z,986.94
2019-06-27T08:19:05.359Z,986.85
2019-06-27T08:20:05.583Z,987.00
2019-06-27T08:21:05.617Z,987.00
2019-06-27T08:22:04.632Z,986.88
2019-06-27T08:23:04.581Z,986.88
2019-06-27T08:24:05.134Z,986.88
2019-06-27T08:25:04.712Z,986.88
2019-06-27T08:26:04.845Z,986.80
2019-06-27T08:27:05.084Z,986.92
2019-06-27T08:28:04.658Z,986.86
2019-06-27T08:29:05.117Z,986.80
2019-06-27T08:30:08.997Z,986.92
2019-06-27T08:31:04.715Z,986.94
2019-06-27T08:32:04.753Z,986.89
2019-06-27T08:33:04.948Z,986.82
2019-06-27T08:34:05.030Z,986.85
2019-06-27T08:35:04.923Z,986.79
2019-06-27T08:36:04.654Z,986.82
2019-06-27T08:37:04.674Z,986.88
2019-06-27T08:38:05.104Z,986.76
2019-06-27T08:39:04.930Z,986.88
2019-06-27T08:40:05.490Z,986.88
2019-06-27T08:41:04.467Z,986.76
2019-06-27T08:42:04.825Z,986.93
2019-06-27T08:43:04.956Z,986.81
2019-06-27T08:44:05.103Z,986.72
2019-06-27T08:45:05.439Z,986.69
2019-06-27T08:46:05.408Z,986.75
2019-06-27T08:47:04.774Z,986.87
2019-06-27T08:48:09.746Z,986.69
2019-06-27T08:49:05.112Z,986.64
2019-06-27T08:50:04.517Z,986.78
2019-06-27T08:51:04.902Z,986.90
2019-06-27T08:52:04.983Z,986.72
2019-06-27T08:53:05.116Z,986.70
2019-06-27T08:54:04.608Z,986.69
2019-06-27T08:55:04.649Z,986.69
2019-06-27T08:56:05.415Z,986.67
2019-06-27T08:57:05.041Z,986.69
2019-06-27T08:58:05.277Z,986.72
2019-06-27T08:59:04.594Z,986.69
2019-06-27T09:00:05.329Z,986.78
2019-06-27T09:01:05.066Z,986.75
2019-06-27T09:02:09.764Z,986.72
2019-06-27T09:03:05.171Z,986.66
2019-06-27T09:04:04.836Z,986.57
2019-06-27T09:05:04.784Z,986.63
2019-06-27T09:06:05.012Z,986.60
2019-06-27T09:07:05.081Z,986.57
2019-06-27T09:08:05.125Z,986.55
2019-06-27T09:09:05.252Z,986.63
2019-06-27T09:10:04.532Z,986.66
2019-06-27T09:11:04.783Z,986.57
2019-06-27T09:12:05.416Z,986.62
2019-06-27T09:13:04.654Z,986.62
2019-06-27T09:14:05.330Z,986.65
2019-06-27T09:15:05.561Z,986.65
2019-06-27T09:16:04.862Z,986.48
2019-06-27T09:17:05.392Z,986.62
2019-06-27T09:18:04.860Z,986.54
2019-06-27T09:19:05.361Z,986.56
2019-06-27T09:20:05.426Z,986.51
2019-06-27T09:21:04.782Z,986.59
2019-06-27T09:22:10.376Z,986.62
2019-06-27T09:23:04.769Z,986.65
2019-06-27T09:24:04.925Z,986.65
2019-06-27T09:25:05.170Z,986.55
2019-06-27T09:26:05.164Z,986.57
2019-06-27T09:27:04.904Z,986.59
2019-06-27T09:28:05.108Z,986.55
2019-06-27T09:29:05.282Z,986.55
2019-06-27T09:30:04.938Z,986.55
2019-06-27T09:31:05.071Z,986.52
2019-06-27T09:32:05.197Z,986.59
2019-06-27T09:33:04.799Z,986.46
2019-06-27T09:34:04.862Z,986.46
2019-06-27T09:35:04.727Z,986.43
2019-06-27T09:36:04.637Z,986.46
2019-06-27T09:37:05.003Z,986.59
2019-06-27T09:38:05.142Z,986.48
2019-06-27T09:39:05.454Z,986.42
2019-06-27T09:40:04.834Z,986.51
2019-06-27T09:41:05.253Z,986.45
2019-06-27T09:42:04.786Z,986.51
2019-06-27T09:43:04.832Z,986.51
2019-06-27T09:44:05.425Z,986.48
2019-06-27T09:45:09.564Z,986.48
2019-06-27T09:46:05.248Z,986.51
2019-06-27T09:47:05.006Z,986.48
2019-06-27T09:48:05.349Z,986.45
2019-06-27T09:49:05.169Z,986.56
2019-06-27T09:50:04.759Z,986.45
2019-06-27T09:51:04.692Z,986.51
2019-06-27T09:52:05.264Z,986.36
2019-06-27T09:53:05.451Z,986.54
2019-06-27T09:54:04.656Z,986.42
2019-06-27T09:55:04.596Z,986.39
2019-06-27T09:56:04.802Z,986.42
2019-06-27T09:57:05.288Z,986.33
2019-06-27T09:58:05.322Z,986.50
2019-06-27T09:59:05.405Z,986.50
2019-06-27T10:00:04.566Z,986.38
2019-06-27T10:01:06.592Z,986.38
2019-06-27T10:02:05.310Z,986.53
2019-06-27T10:03:04.611Z,986.44
2019-06-27T10:04:05.187Z,986.41
2019-06-27T10:05:10.430Z,986.41
2019-06-27T10:06:04.806Z,986.53
2019-06-27T10:07:04.952Z,986.53
2019-06-27T10:08:05.272Z,986.26
2019-06-27T10:09:05.399Z,986.44
2019-06-27T10:10:04.556Z,986.38
2019-06-27T10:11:04.807Z,986.38
2019-06-27T10:12:05.337Z,986.35
2019-06-27T10:13:05.066Z,986.44
2019-06-27T10:14:04.658Z,986.26
2019-06-27T10:15:04.690Z,986.37
2019-06-27T10:16:05.111Z,986.43
2019-06-27T10:17:04.755Z,986.37
2019-06-27T10:18:05.255Z,986.26
2019-06-27T10:19:04.987Z,986.34
2019-06-27T10:20:05.054Z,986.22
2019-06-27T10:21:05.137Z,986.34
2019-06-27T10:22:04.905Z,986.37
2019-06-27T10:23:05.160Z,986.46
2019-06-27T10:24:05.316Z,986.40
2019-06-27T10:25:05.148Z,986.14
2019-06-27T10:26:05.075Z,986.20
2019-06-27T10:27:05.295Z,986.14
2019-06-27T10:28:05.340Z,986.26
2019-06-27T10:29:05.099Z,986.32
2019-06-27T10:30:04.781Z,986.26
2019-06-27T10:31:05.120Z,986.23
2019-06-27T10:32:04.480Z,986.34
2019-06-27T10:33:04.799Z,986.25
2019-06-27T10:34:05.442Z,986.22
2019-06-27T10:35:04.888Z,986.19
2019-06-27T10:36:05.355Z,986.16
2019-06-27T10:37:05.123Z,986.01
2019-06-27T10:38:04.526Z,986.25
2019-06-27T10:39:05.288Z,986.16
2019-06-27T10:40:04.947Z,986.13
2019-06-27T10:41:05.047Z,986.07
2019-06-27T10:42:05.130Z,986.04
2019-06-27T10:43:05.235Z,986.07
2019-06-27T10:44:05.443Z,986.13
2019-06-27T10:45:04.631Z,986.01
2019-06-27T10:46:05.338Z,985.98
2019-06-27T10:47:04.950Z,986.15
2019-06-27T10:48:04.642Z,986.09
2019-06-27T10:49:05.089Z,986.13
2019-06-27T10:50:05.006Z,986.15
2019-06-27T10:51:05.397Z,986.18
2019-06-27T10:52:05.382Z,986.07
2019-06-27T10:53:05.484Z,986.13
2019-06-27T10:54:04.718Z,986.16
2019-06-27T10:55:04.646Z,986.07
2019-06-27T10:56:04.879Z,986.10
2019-06-27T10:57:05.110Z,986.01
2019-06-27T10:58:05.565Z,986.16
2019-06-27T10:59:04.785Z,986.22
2019-06-27T11:00:05.488Z,986.04
2019-06-27T11:01:04.842Z,986.04
2019-06-27T11:02:05.244Z,986.10
2019-06-27T11:03:16.372Z,986.07
2019-06-27T11:04:04.715Z,986.10
2019-06-27T11:05:09.876Z,986.01
2019-06-27T11:06:05.309Z,986.01
2019-06-27T11:07:05.480Z,985.92
2019-06-27T11:08:04.986Z,985.85
2019-06-27T11:09:04.692Z,985.94
2019-06-27T11:10:05.138Z,985.91
2019-06-27T11:11:05.136Z,985.82
2019-06-27T11:12:04.842Z,985.91
2019-06-27T11:13:05.203Z,985.91
2019-06-27T11:14:05.500Z,985.85
2019-06-27T11:15:04.829Z,985.79
2019-06-27T11:16:04.895Z,985.79
2019-06-27T11:17:05.238Z,985.73
2019-06-27T11:18:04.636Z,985.82
2019-06-27T11:19:05.068Z,985.85
2019-06-27T11:20:05.659Z,985.79
2019-06-27T11:21:05.079Z,985.91
2019-06-27T11:22:05.292Z,985.76
2019-06-27T11:23:05.399Z,985.82
2019-06-27T11:24:04.652Z,985.76
2019-06-27T11:25:04.811Z,985.76
2019-06-27T11:26:08.399Z,985.91
2019-06-27T11:27:05.426Z,985.79
2019-06-27T11:28:04.567Z,985.76
2019-06-27T11:29:05.302Z,985.73
2019-06-27T11:30:04.551Z,985.70
2019-06-27T11:31:05.174Z,985.76
2019-06-27T11:32:05.260Z,985.73
2019-06-27T11:33:04.872Z,985.79
2019-06-27T11:34:05.026Z,985.61
2019-06-27T11:35:05.126Z,985.70
2019-06-27T11:36:04.795Z,985.72
2019-06-27T11:37:05.130Z,985.60
2019-06-27T11:38:05.224Z,985.54
2019-06-27T11:39:04.530Z,985.72
2019-06-27T11:40:05.134Z,985.78
2019-06-27T11:41:05.181Z,985.63
2019-06-27T11:42:05.336Z,985.69
2019-06-27T11:43:05.435Z,985.70
2019-06-27T11:44:04.753Z,985.78
2019-06-27T11:45:09.970Z,985.61
2019-06-27T11:46:09.145Z,985.75
2019-06-27T11:47:04.894Z,985.72
2019-06-27T11:48:05.277Z,985.69
2019-06-27T11:49:04.565Z,985.69
2019-06-27T11:50:04.669Z,985.66
2019-06-27T11:51:05.234Z,985.72
2019-06-27T11:52:04.631Z,985.66
2019-06-27T11:53:05.249Z,985.69
2019-06-27T11:54:04.485Z,985.60
2019-06-27T11:55:05.540Z,985.66
2019-06-27T11:56:04.800Z,985.69
2019-06-27T11:57:04.967Z,985.75
2019-06-27T11:58:05.502Z,985.69
2019-06-27T11:59:04.655Z,985.72
2019-06-27T12:00:05.184Z,985.66
2019-06-27T12:01:05.243Z,985.60
2019-06-27T12:02:04.792Z,985.63
2019-06-27T12:03:05.504Z,985.54
2019-06-27T12:04:05.644Z,985.66
2019-06-27T12:05:10.234Z,985.60
2019-06-27T12:06:05.320Z,985.57
2019-06-27T12:07:05.409Z,985.60
2019-06-27T12:08:05.625Z,985.54
2019-06-27T12:09:04.886Z,985.57
2019-06-27T12:10:05.082Z,985.57
2019-06-27T12:11:05.055Z,985.51
2019-06-27T12:12:05.009Z,985.57
2019-06-27T12:13:04.747Z,985.57
2019-06-27T12:14:04.904Z,985.48
2019-06-27T12:15:05.040Z,985.51
2019-06-27T12:16:05.526Z,985.51
2019-06-27T12:17:04.684Z,985.51
2019-06-27T12:18:04.779Z,985.54
2019-06-27T12:19:05.267Z,985.57
2019-06-27T12:20:04.841Z,985.57
2019-06-27T12:21:06.760Z,985.45
2019-06-27T12:22:04.674Z,985.66
2019-06-27T12:23:05.049Z,985.57
2019-06-27T12:24:05.106Z,985.52
2019-06-27T12:25:05.312Z,985.49
2019-06-27T12:26:04.974Z,985.49
2019-06-27T12:27:05.195Z,985.52
2019-06-27T12:28:05.131Z,985.49